Time;durP1;ratioP1;P1;durP2;ratioP2;P2;SDS_P1;SDS_P2;PMS_P1;PMS_P2;Temp;Humidity;BMP_temperature;BMP_pressure;BME280_temperature;BME280_humidity;BME280_pressure;Samples;Min_cycle;Max_cycle;Signal;HPM_P1;HPM_P2
2022/12/26 00:02:00;;;;;;;1.53;1.17;;;;;;;-141.59;100.00;61776.25;5007003;28;20203;-81
2022/12/26 00:04:29;;;;;;;1.87;1.40;;;;;;;-141.59;100.00;61776.25;5010988;28;20199;-81
2022/12/26 00:06:58;;;;;;;2.10;1.60;;;;;;;-141.59;100.00;61776.25;5007849;28;20229;-81
2022/12/26 00:09:25;;;;;;;1.33;1.20;;;;;;;-141.59;100.00;61776.25;5036350;28;20250;-81
2022/12/26 00:11:52;;;;;;;2.33;1.60;;;;;;;-141.59;100.00;61776.25;5008870;28;20224;-81
2022/12/26 00:14:19;;;;;;;2.00;1.60;;;;;;;-141.59;100.00;61776.25;5010763;28;20211;-81
2022/12/26 00:16:46;;;;;;;1.30;1.20;;;;;;;-141.59;100.00;61776.25;5005529;28;20213;-81
2022/12/26 00:19:13;;;;;;;1.47;1.10;;;;;;;-141.59;100.00;61776.25;5009798;28;20294;-81
2022/12/26 00:21:42;;;;;;;1.90;1.40;;;;;;;-141.59;100.00;61776.25;5006382;28;20206;-81
2022/12/26 00:24:11;;;;;;;3.20;2.60;;;;;;;-141.59;100.00;61776.25;5008604;28;20241;-81
2022/12/26 00:26:39;;;;;;;4.60;2.93;;;;;;;-141.59;100.00;61776.25;5008171;28;20230;-81
2022/12/26 00:29:06;;;;;;;6.60;3.20;;;;;;;-141.59;100.00;61776.25;5011859;28;20211;-81
2022/12/26 00:31:34;;;;;;;5.93;3.43;;;;;;;-141.59;100.00;61776.25;5012744;28;20210;-80
2022/12/26 00:34:02;;;;;;;6.07;3.30;;;;;;;-141.59;100.00;61776.25;5010227;28;20210;-80
2022/12/26 00:36:31;;;;;;;6.10;4.03;;;;;;;-141.59;100.00;61776.25;5013303;28;20288;-80
2022/12/26 00:39:02;;;;;;;5.83;4.63;;;;;;;-141.59;100.00;61776.25;5009212;28;20215;-80
2022/12/26 00:41:29;;;;;;;4.67;3.80;;;;;;;-141.59;100.00;61776.25;5011140;28;20210;-81
2022/12/26 00:43:57;;;;;;;4.23;3.80;;;;;;;-141.59;100.00;61776.25;5011403;28;20213;-81
2022/12/26 00:46:25;;;;;;;4.73;3.87;;;;;;;-141.59;100.00;61776.25;5014121;28;20241;-81
2022/12/26 00:48:52;;;;;;;4.77;4.03;;;;;;;-141.59;100.00;61776.25;5024942;28;20199;-81
2022/12/26 00:51:20;;;;;;;4.80;3.73;;;;;;;-141.59;100.00;61776.25;5014821;28;20301;-81
2022/12/26 00:53:47;;;;;;;7.00;3.80;;;;;;;-141.59;100.00;61776.25;5014898;28;20206;-81
2022/12/26 00:56:16;;;;;;;5.77;4.10;;;;;;;-141.59;100.00;61776.25;5026192;28;20209;-81
2022/12/26 00:58:43;;;;;;;5.40;4.37;;;;;;;-141.59;100.00;61776.25;5027183;28;20214;-81
2022/12/26 01:01:14;;;;;;;5.57;4.20;;;;;;;-141.59;100.00;61776.25;5008598;28;20265;-81
2022/12/26 01:03:41;;;;;;;5.40;4.13;;;;;;;-141.59;100.00;61776.25;5002465;28;20207;-81
2022/12/26 01:06:08;;;;;;;6.57;4.37;;;;;;;-141.59;100.00;61776.25;5004192;28;20210;-81
2022/12/26 01:08:36;;;;;;;6.60;5.10;;;;;;;-141.59;100.00;61776.25;5010103;28;20223;-81
2022/12/26 01:11:05;;;;;;;7.33;5.23;;;;;;;-141.59;100.00;61776.25;5012678;28;20218;-81
2022/12/26 01:13:34;;;;;;;7.27;5.33;;;;;;;-141.59;100.00;61776.25;5014247;28;20265;-81
2022/12/26 01:16:01;;;;;;;7.60;5.10;;;;;;;-141.59;100.00;61776.25;5009994;28;20202;-81
2022/12/26 01:18:29;;;;;;;7.60;5.20;;;;;;;-141.59;100.00;61776.25;5038443;28;20211;-81
2022/12/26 01:21:00;;;;;;;7.47;5.33;;;;;;;-141.59;100.00;61776.25;5012665;28;20192;-81
2022/12/26 01:23:27;;;;;;;7.40;4.90;;;;;;;-141.59;100.00;61776.25;5034937;28;20282;-81
2022/12/26 01:25:54;;;;;;;8.40;6.03;;;;;;;-141.59;100.00;61776.25;5006925;28;20234;-80
2022/12/26 01:28:21;;;;;;;7.37;5.40;;;;;;;-141.59;100.00;61776.25;5012236;28;20234;-81
2022/12/26 01:30:49;;;;;;;9.97;5.90;;;;;;;-141.59;100.00;61776.25;5031188;28;20249;-81
2022/12/26 01:33:17;;;;;;;9.20;5.83;;;;;;;-141.59;100.00;61776.25;4998245;28;20231;-81
2022/12/26 01:35:53;;;;;;;6.80;4.83;;;;;;;-141.59;100.00;61776.25;4997959;28;20203;-81
2022/12/26 01:38:21;;;;;;;7.07;5.07;;;;;;;-141.59;100.00;61776.25;5009971;28;20301;-81
2022/12/26 01:41:15;;;;;;;8.33;4.60;;;;;;;-141.59;100.00;61776.25;5012891;28;20215;-80
2022/12/26 01:44:04;;;;;;;6.47;4.00;;;;;;;-141.59;100.00;61776.25;5010156;28;20234;-81
2022/12/26 01:46:38;;;;;;;8.27;4.30;;;;;;;-141.59;100.00;61776.25;4989608;28;20203;-81
2022/12/26 01:49:09;;;;;;;6.63;4.83;;;;;;;-141.59;100.00;61776.25;5012202;28;20207;-80
2022/12/26 01:51:42;;;;;;;6.33;4.43;;;;;;;-141.59;100.00;61776.25;5006503;28;20203;-80
2022/12/26 01:54:12;;;;;;;6.80;4.60;;;;;;;-141.59;100.00;61776.25;5002636;28;20202;-80
2022/12/26 01:56:43;;;;;;;7.37;4.40;;;;;;;-141.59;100.00;61776.25;5033617;28;20226;-80
2022/12/26 01:59:13;;;;;;;6.10;3.90;;;;;;;-141.59;100.00;61776.25;5006946;28;20211;-81
2022/12/26 02:01:43;;;;;;;4.13;3.33;;;;;;;-141.59;100.00;61776.25;5008365;28;20337;-80
2022/12/26 02:07:00;;;;;;;4.03;3.13;;;;;;;-141.59;100.00;61776.25;5010280;28;20222;-83
2022/12/26 02:09:27;;;;;;;7.80;4.77;;;;;;;-141.59;100.00;61776.25;5003144;28;20222;-83
2022/12/26 02:11:58;;;;;;;6.37;4.47;;;;;;;-141.59;100.00;61776.25;5020596;28;20253;-83
2022/12/26 02:14:25;;;;;;;10.40;4.70;;;;;;;-141.59;100.00;61776.25;5008263;28;20209;-82
2022/12/26 02:16:54;;;;;;;6.13;4.90;;;;;;;-141.59;100.00;61776.25;5011347;28;20218;-83
2022/12/26 02:19:32;;;;;;;8.90;5.17;;;;;;;-141.59;100.00;61776.25;5007012;28;20208;-83
2022/12/26 02:22:20;;;;;;;5.33;4.60;;;;;;;-141.59;100.00;61776.25;5005522;28;20337;-83
2022/12/26 02:25:24;;;;;;;6.90;5.03;;;;;;;-141.59;100.00;61776.25;5028039;28;20286;-83
2022/12/26 02:28:27;;;;;;;6.67;5.30;;;;;;;-141.59;100.00;61776.25;4990202;28;20496;-82
2022/12/26 02:31:01;;;;;;;6.27;5.23;;;;;;;-141.59;100.00;61776.25;4998814;28;20247;-83
2022/12/26 02:33:40;;;;;;;12.43;5.77;;;;;;;-141.59;100.00;61776.25;4982601;28;20283;-82
2022/12/26 02:36:27;;;;;;;10.93;5.60;;;;;;;-141.59;100.00;61776.25;4984198;28;20195;-83
2022/12/26 02:39:07;;;;;;;15.10;5.60;;;;;;;-141.59;100.00;61776.25;4990476;28;20235;-83
2022/12/26 02:41:43;;;;;;;8.00;5.70;;;;;;;-141.59;100.00;61776.25;4996117;28;20193;-83
2022/12/26 02:47:15;;;;;;;7.97;5.90;;;;;;;-141.59;100.00;61776.25;4983480;28;20216;-83
2022/12/26 03:18:20;;;;;;;9.13;6.00;;;;;;;-141.59;100.00;61776.25;4989306;28;20238;-82
2022/12/26 03:20:50;;;;;;;8.23;5.53;;;;;;;-141.59;100.00;61776.25;4991777;28;20196;-82
2022/12/26 03:23:21;;;;;;;7.80;5.33;;;;;;;-141.59;100.00;61776.25;4991107;28;20257;-83
2022/12/26 03:28:52;;;;;;;6.67;4.80;;;;;;;-141.59;100.00;61776.25;4953064;28;20258;-83
2022/12/26 03:31:38;;;;;;;6.37;5.23;;;;;;;-141.59;100.00;61776.25;4946523;28;20200;-82
2022/12/26 03:34:18;;;;;;;7.90;5.10;;;;;;;-141.59;100.00;61776.25;4978399;28;20223;-83
2022/12/26 03:37:01;;;;;;;6.27;5.00;;;;;;;-141.59;100.00;61776.25;5010036;28;20234;-82
2022/12/26 04:19:48;;;;;;;2.17;1.40;;;;;;;-141.59;100.00;61776.25;5026175;28;20210;-82
2022/12/26 04:44:57;;;;;;;6.63;5.00;;;;;;;-141.59;100.00;61776.25;5010608;28;20222;-83
2022/12/26 04:47:24;;;;;;;7.13;4.60;;;;;;;-141.59;100.00;61776.25;5013966;28;20243;-83
2022/12/26 04:55:21;;;;;;;22.97;5.13;;;;;;;-141.59;100.00;61776.25;5013289;28;20214;-82
2022/12/26 04:57:47;;;;;;;6.80;4.87;;;;;;;-141.59;100.00;61776.25;5003534;28;20199;-83
2022/12/26 05:00:17;;;;;;;27.90;7.47;;;;;;;-141.59;100.00;61776.25;5014481;28;20211;-83
2022/12/26 05:11:09;;;;;;;37.43;6.70;;;;;;;-141.59;100.00;61776.25;5019883;28;20230;-82
2022/12/26 05:13:36;;;;;;;11.20;6.00;;;;;;;-141.59;100.00;61776.25;5017847;28;20274;-82
2022/12/26 05:29:56;;;;;;;20.67;5.97;;;;;;;-141.59;100.00;61776.25;4996958;28;20207;-82
2022/12/26 05:35:10;;;;;;;10.20;6.70;;;;;;;-141.59;100.00;61776.25;5003391;28;20211;-82
2022/12/26 05:37:37;;;;;;;26.63;8.43;;;;;;;-141.59;100.00;61776.25;5009913;28;20195;-83
2022/12/26 05:40:05;;;;;;;12.60;7.70;;;;;;;-141.59;100.00;61776.25;5006253;28;20267;-82
2022/12/26 05:42:32;;;;;;;13.53;7.60;;;;;;;-141.59;100.00;61776.25;5010443;28;20289;-82
2022/12/26 05:44:59;;;;;;;16.90;7.37;;;;;;;-141.59;100.00;61776.25;5004363;28;20210;-82
2022/12/26 05:47:28;;;;;;;10.93;7.43;;;;;;;-141.59;100.00;61776.25;5012077;28;20203;-82
2022/12/26 05:49:55;;;;;;;13.83;8.10;;;;;;;-141.59;100.00;61776.25;5010575;28;20210;-82
2022/12/26 05:52:22;;;;;;;11.03;7.07;;;;;;;-141.59;100.00;61776.25;5012005;28;20198;-82
2022/12/26 05:54:49;;;;;;;12.97;7.67;;;;;;;-141.59;100.00;61776.25;5042759;28;20370;-82
2022/12/26 05:57:16;;;;;;;9.90;7.03;;;;;;;-141.59;100.00;61776.25;5005914;28;20202;-82
2022/12/26 05:59:43;;;;;;;9.63;6.60;;;;;;;-141.59;100.00;61776.25;5006509;28;20277;-82
2022/12/26 06:02:10;;;;;;;13.73;7.90;;;;;;;-141.59;100.00;61776.25;5027519;28;20209;-82
2022/12/26 06:04:38;;;;;;;15.73;7.60;;;;;;;-141.59;100.00;61776.25;5002441;28;20217;-82
2022/12/26 06:07:08;;;;;;;22.70;8.07;;;;;;;-141.59;100.00;61776.25;5013418;28;20211;-82
2022/12/26 06:09:35;;;;;;;13.80;8.17;;;;;;;-141.59;100.00;61776.25;5023647;28;20227;-82
2022/12/26 06:12:02;;;;;;;12.23;7.93;;;;;;;-141.59;100.00;61776.25;5007091;28;20195;-82
2022/12/26 06:14:29;;;;;;;13.77;7.40;;;;;;;-141.59;100.00;61776.25;5039209;28;20199;-82
2022/12/26 06:16:56;;;;;;;25.90;8.13;;;;;;;-141.59;100.00;61776.25;5006651;28;20204;-82
2022/12/26 06:19:23;;;;;;;15.03;8.03;;;;;;;-141.59;100.00;61776.25;5003635;28;20257;-82
2022/12/26 06:21:51;;;;;;;14.07;7.60;;;;;;;-141.59;100.00;61776.25;5004080;28;20262;-82
2022/12/26 06:24:19;;;;;;;13.23;7.20;;;;;;;-141.59;100.00;61776.25;5005143;28;20203;-82
2022/12/26 06:26:46;;;;;;;11.60;7.17;;;;;;;-141.59;100.00;61776.25;5008029;28;20249;-82
2022/12/26 06:29:13;;;;;;;8.87;6.17;;;;;;;-141.59;100.00;61776.25;4995260;28;20236;-82
2022/12/26 06:31:40;;;;;;;10.97;7.23;;;;;;;-141.59;100.00;61776.25;5003141;28;20270;-82
2022/12/26 06:34:07;;;;;;;11.30;7.20;;;;;;;-141.59;100.00;61776.25;5007815;28;20235;-82
2022/12/26 06:36:34;;;;;;;9.67;6.53;;;;;;;-141.59;100.00;61776.25;5005570;28;20195;-82
2022/12/26 06:39:03;;;;;;;10.23;6.87;;;;;;;-141.59;100.00;61776.25;5006587;28;20207;-82
2022/12/26 06:41:30;;;;;;;8.33;6.20;;;;;;;-141.59;100.00;61776.25;5010223;28;20229;-82
2022/12/26 06:43:57;;;;;;;8.77;6.47;;;;;;;-141.59;100.00;61776.25;5003705;28;20199;-82
2022/12/26 06:46:25;;;;;;;8.80;6.50;;;;;;;-141.59;100.00;61776.25;5032693;28;20294;-82
2022/12/26 06:48:52;;;;;;;8.03;5.90;;;;;;;-141.59;100.00;61776.25;5011246;28;20230;-82
2022/12/26 06:51:22;;;;;;;7.23;5.30;;;;;;;-141.59;100.00;61776.25;5046771;28;20213;-82
2022/12/26 06:53:50;;;;;;;8.63;6.03;;;;;;;-141.59;100.00;61776.25;5030908;28;20207;-83
2022/12/26 06:56:20;;;;;;;11.47;5.37;;;;;;;-141.59;100.00;61776.25;5010979;28;20265;-82
2022/12/26 06:58:48;;;;;;;6.40;5.30;;;;;;;-141.59;100.00;61776.25;5007213;28;20204;-83
2022/12/26 07:01:17;;;;;;;8.00;5.13;;;;;;;-141.59;100.00;61776.25;5000666;28;20200;-82
2022/12/26 07:03:47;;;;;;;6.67;5.43;;;;;;;-141.59;100.00;61776.25;5011778;28;20276;-83
2022/12/26 07:06:21;;;;;;;6.90;5.07;;;;;;;-141.59;100.00;61776.25;5009764;28;20225;-82
2022/12/26 07:08:49;;;;;;;6.70;5.43;;;;;;;-141.59;100.00;61776.25;5028235;28;20276;-83
2022/12/26 07:11:20;;;;;;;6.23;4.77;;;;;;;-141.59;100.00;61776.25;5008887;28;20242;-82
2022/12/26 07:13:48;;;;;;;7.67;5.13;;;;;;;-141.59;100.00;61776.25;5015646;28;20309;-83
2022/12/26 07:16:15;;;;;;;8.63;4.87;;;;;;;-141.59;100.00;61776.25;5008104;28;20214;-83
2022/12/26 07:18:42;;;;;;;6.07;4.93;;;;;;;-141.59;100.00;61776.25;5011607;28;20195;-83
2022/12/26 07:21:11;;;;;;;6.97;5.40;;;;;;;-141.59;100.00;61776.25;5008914;28;20207;-83
2022/12/26 07:23:38;;;;;;;5.27;4.60;;;;;;;-141.59;100.00;61776.25;5004521;28;20211;-83
2022/12/26 07:26:06;;;;;;;7.83;4.80;;;;;;;-141.59;100.00;61776.25;5040583;28;20235;-83
2022/12/26 07:28:35;;;;;;;4.90;3.97;;;;;;;-141.59;100.00;61776.25;5021528;28;20218;-82
2022/12/26 07:31:02;;;;;;;7.30;3.87;;;;;;;-141.59;100.00;61776.25;5009510;28;20404;-83
2022/12/26 07:33:33;;;;;;;4.40;3.93;;;;;;;-141.59;100.00;61776.25;5028646;28;20199;-82
2022/12/26 07:36:01;;;;;;;4.03;3.57;;;;;;;-141.59;100.00;61776.25;5021474;28;20202;-82
2022/12/26 07:38:28;;;;;;;4.67;3.50;;;;;;;-141.59;100.00;61776.25;4998426;28;20202;-83
2022/12/26 07:40:56;;;;;;;3.43;2.93;;;;;;;-141.59;100.00;61776.25;5021582;28;20234;-83
2022/12/26 07:43:23;;;;;;;4.37;3.37;;;;;;;-141.59;100.00;61776.25;5012617;28;20202;-83
2022/12/26 07:45:53;;;;;;;5.90;4.50;;;;;;;-141.59;100.00;61776.25;5007285;28;20297;-83
2022/12/26 07:48:20;;;;;;;6.43;3.43;;;;;;;-141.59;100.00;61776.25;5029484;28;20211;-83
2022/12/26 07:50:48;;;;;;;5.23;3.80;;;;;;;-141.59;100.00;61776.25;5003143;28;20239;-83
2022/12/26 07:53:16;;;;;;;4.90;3.57;;;;;;;-141.59;100.00;61776.25;5039470;28;20202;-83
2022/12/26 07:55:43;;;;;;;3.40;2.97;;;;;;;-141.59;100.00;61776.25;5007360;28;20229;-83
2022/12/26 07:58:10;;;;;;;5.90;3.50;;;;;;;-141.59;100.00;61776.25;5024470;28;20231;-83
2022/12/26 08:00:37;;;;;;;3.80;3.33;;;;;;;-141.59;100.00;61776.25;5011084;28;20226;-82
2022/12/26 08:03:09;;;;;;;3.33;2.90;;;;;;;-141.59;100.00;61776.25;5009200;28;20198;-83
2022/12/26 08:05:36;;;;;;;3.80;2.43;;;;;;;-141.59;100.00;61776.25;5006062;28;20203;-83
2022/12/26 08:08:03;;;;;;;2.53;2.10;;;;;;;-141.59;100.00;61776.25;5011605;28;20204;-83
2022/12/26 08:10:30;;;;;;;2.20;2.00;;;;;;;-141.59;100.00;61776.25;5008509;28;20330;-82
2022/12/26 08:12:57;;;;;;;2.47;1.90;;;;;;;-141.59;100.00;61776.25;5012533;28;20205;-83
2022/12/26 08:15:24;;;;;;;2.50;2.00;;;;;;;-141.59;100.00;61776.25;5008646;28;20209;-83
2022/12/26 08:17:51;;;;;;;3.17;2.23;;;;;;;-141.59;100.00;61776.25;5007876;28;20203;-83
2022/12/26 08:20:19;;;;;;;2.10;1.80;;;;;;;-141.59;100.00;61776.25;5016004;28;20210;-83
2022/12/26 08:22:46;;;;;;;2.50;2.30;;;;;;;-141.59;100.00;61776.25;5001396;28;20196;-83
2022/12/26 08:25:13;;;;;;;3.67;2.70;;;;;;;-141.59;100.00;61776.25;5006382;28;20207;-83
2022/12/26 08:27:40;;;;;;;3.33;2.50;;;;;;;-141.59;100.00;61776.25;5011661;28;20207;-83
2022/12/26 08:30:09;;;;;;;4.27;2.90;;;;;;;-141.59;100.00;61776.25;5001178;28;20238;-83
2022/12/26 08:32:36;;;;;;;4.07;2.60;;;;;;;-141.59;100.00;61776.25;5022933;28;20191;-83
2022/12/26 08:35:07;;;;;;;2.53;2.27;;;;;;;-141.59;100.00;61776.25;5033947;28;20215;-83
2022/12/26 08:37:35;;;;;;;4.23;2.83;;;;;;;-141.59;100.00;61776.25;5036246;28;20250;-83
2022/12/26 08:40:02;;;;;;;3.60;2.40;;;;;;;-141.59;100.00;61776.25;5025178;28;20211;-83
2022/12/26 08:42:31;;;;;;;2.90;1.90;;;;;;;-141.59;100.00;61776.25;5017555;28;20200;-83
2022/12/26 08:44:58;;;;;;;2.10;1.90;;;;;;;-141.59;100.00;61776.25;5009220;28;20221;-83
2022/12/26 08:47:26;;;;;;;3.20;2.10;;;;;;;-141.59;100.00;61776.25;5032929;28;20204;-83
2022/12/26 08:49:53;;;;;;;3.20;2.13;;;;;;;-141.59;100.00;61776.25;5010037;28;20241;-83
2022/12/26 08:52:20;;;;;;;1.70;1.60;;;;;;;-141.59;100.00;61776.25;5012507;28;20219;-83
2022/12/26 08:54:49;;;;;;;3.10;2.10;;;;;;;-141.59;100.00;61776.25;4998241;28;20207;-83
2022/12/26 08:57:16;;;;;;;3.67;2.27;;;;;;;-141.59;100.00;61776.25;5010558;28;20206;-83
2022/12/26 08:59:43;;;;;;;2.17;1.90;;;;;;;-141.59;100.00;61776.25;5040856;28;20218;-85
2022/12/26 09:02:11;;;;;;;4.70;2.33;;;;;;;-141.59;100.00;61776.25;5012949;28;20596;-83
2022/12/26 09:04:38;;;;;;;2.53;2.30;;;;;;;-141.59;100.00;61776.25;5014065;28;20203;-83
2022/12/26 09:07:07;;;;;;;3.03;2.10;;;;;;;-141.59;100.00;61776.25;5012850;28;20261;-83
2022/12/26 09:09:35;;;;;;;2.30;2.07;;;;;;;-141.59;100.00;61776.25;5014773;28;20242;-83
2022/12/26 09:12:03;;;;;;;2.23;1.93;;;;;;;-141.59;100.00;61776.25;5013605;28;20199;-83
2022/12/26 09:14:31;;;;;;;2.13;1.70;;;;;;;-141.59;100.00;61776.25;5043685;28;20305;-83
2022/12/26 09:16:58;;;;;;;5.67;2.80;;;;;;;-141.59;100.00;61776.25;5024692;28;20199;-83
2022/12/26 09:19:28;;;;;;;3.97;2.70;;;;;;;-141.59;100.00;61776.25;5013066;28;20212;-83
2022/12/26 09:24:36;;;;;;;2.87;2.50;;;;;;;-141.59;100.00;61776.25;5011144;28;20213;-83
2022/12/26 09:27:05;;;;;;;3.97;2.67;;;;;;;-141.59;100.00;61776.25;5013149;28;20265;-83
2022/12/26 09:29:32;;;;;;;3.90;2.50;;;;;;;-141.59;100.00;61776.25;5007109;28;20223;-83
2022/12/26 09:31:59;;;;;;;3.77;2.60;;;;;;;-141.59;100.00;61776.25;5021631;28;20195;-84
2022/12/26 09:34:26;;;;;;;4.13;2.67;;;;;;;-141.59;100.00;61776.25;5008009;28;20200;-83
2022/12/26 09:36:53;;;;;;;3.97;2.70;;;;;;;-141.59;100.00;61776.25;5009911;28;20224;-84
2022/12/26 09:39:20;;;;;;;2.37;2.00;;;;;;;-141.59;100.00;61776.25;5036103;28;20203;-84
2022/12/26 09:42:05;;;;;;;4.17;2.70;;;;;;;-141.59;100.00;61776.25;5006748;28;20206;-83
2022/12/26 09:44:44;;;;;;;3.50;2.60;;;;;;;-141.59;100.00;61776.25;5008830;28;20219;-84
2022/12/26 09:47:25;;;;;;;3.37;2.80;;;;;;;-141.59;100.00;61776.25;5038100;28;20225;-84
2022/12/26 09:49:57;;;;;;;3.33;2.73;;;;;;;-141.59;100.00;61776.25;5012245;28;20222;-85
2022/12/26 09:52:35;;;;;;;4.37;2.50;;;;;;;-141.59;100.00;61776.25;5011406;28;20215;-85
2022/12/26 09:55:06;;;;;;;5.90;2.80;;;;;;;-141.59;100.00;61776.25;5024796;28;20261;-85
2022/12/26 09:57:40;;;;;;;3.33;2.80;;;;;;;-141.59;100.00;61776.25;5006560;28;20306;-84
2022/12/26 10:00:17;;;;;;;3.80;3.13;;;;;;;-141.59;100.00;61776.25;5013876;28;20214;-84
2022/12/26 10:02:55;;;;;;;4.73;3.30;;;;;;;-141.59;100.00;61776.25;5009016;28;20225;-83
2022/12/26 10:05:26;;;;;;;5.87;3.17;;;;;;;-141.59;100.00;61776.25;5018919;28;20298;-83
2022/12/26 10:07:58;;;;;;;3.60;3.00;;;;;;;-141.59;100.00;61776.25;5044942;28;20222;-83
2022/12/26 10:10:38;;;;;;;4.20;3.10;;;;;;;-141.59;100.00;61776.25;5023875;28;20277;-81
2022/12/26 10:13:13;;;;;;;6.53;3.87;;;;;;;-141.59;100.00;61776.25;5014086;28;20262;-81
2022/12/26 10:15:49;;;;;;;3.67;3.20;;;;;;;-141.59;100.00;61776.25;5010168;28;20211;-81
2022/12/26 10:18:32;;;;;;;4.70;3.43;;;;;;;-141.59;100.00;61776.25;5007688;28;20322;-81
2022/12/26 10:21:25;;;;;;;5.10;3.87;;;;;;;-141.59;100.00;61776.25;5012123;28;20297;-81
2022/12/26 10:23:57;;;;;;;5.53;3.50;;;;;;;-141.59;100.00;61776.25;5013464;28;20213;-81
2022/12/26 10:26:32;;;;;;;5.67;3.60;;;;;;;-141.59;100.00;61776.25;5006624;28;20231;-82
2022/12/26 10:29:05;;;;;;;4.30;3.80;;;;;;;-141.59;100.00;61776.25;5011199;28;20285;-83
2022/12/26 10:31:37;;;;;;;5.00;3.57;;;;;;;-141.59;100.00;61776.25;5010077;28;20203;-84
2022/12/26 10:34:10;;;;;;;3.93;3.20;;;;;;;-141.59;100.00;61776.25;4987706;28;20209;-83
2022/12/26 10:36:44;;;;;;;4.40;3.67;;;;;;;-141.59;100.00;61776.25;5003326;28;20207;-83
2022/12/26 10:39:17;;;;;;;4.40;3.23;;;;;;;-141.59;100.00;61776.25;5008899;28;20211;-83
2022/12/26 10:41:50;;;;;;;4.50;3.60;;;;;;;-141.59;100.00;61776.25;5008139;28;20210;-83
2022/12/26 10:44:17;;;;;;;4.60;3.33;;;;;;;-141.59;100.00;61776.25;5011261;28;20214;-83
2022/12/26 10:47:08;;;;;;;5.00;3.60;;;;;;;-141.59;100.00;61776.25;5009736;28;20214;-83
2022/12/26 10:49:36;;;;;;;6.73;3.60;;;;;;;-141.59;100.00;61776.25;5025061;28;20219;-83
2022/12/26 10:52:04;;;;;;;7.40;4.60;;;;;;;-141.59;100.00;61776.25;5005794;28;20202;-83
2022/12/26 10:54:31;;;;;;;6.83;3.47;;;;;;;-141.59;100.00;61776.25;4998381;28;20296;-84
2022/12/26 10:57:00;;;;;;;4.50;3.50;;;;;;;-141.59;100.00;61776.25;5003328;28;20207;-83
2022/12/26 10:59:45;;;;;;;5.27;3.93;;;;;;;-141.59;100.00;61776.25;5010646;28;20246;-81
2022/12/26 11:02:23;;;;;;;5.13;4.00;;;;;;;-141.59;100.00;61776.25;5020565;28;20208;-81
2022/12/26 11:05:11;;;;;;;4.27;3.83;;;;;;;-141.59;100.00;61776.25;5015047;28;20225;-82
2022/12/26 11:07:40;;;;;;;5.73;3.60;;;;;;;-141.59;100.00;61776.25;5016378;28;20292;-84
2022/12/26 11:10:18;;;;;;;4.40;3.47;;;;;;;-141.59;100.00;61776.25;5036310;28;20324;-84
2022/12/26 11:12:56;;;;;;;6.60;3.40;;;;;;;-141.59;100.00;61776.25;5025459;28;20258;-84
2022/12/26 11:15:28;;;;;;;3.67;2.93;;;;;;;-141.59;100.00;61776.25;5033687;28;20208;-84
2022/12/26 11:18:09;;;;;;;3.50;3.10;;;;;;;-141.59;100.00;61776.25;5020072;28;20234;-84
2022/12/26 11:20:36;;;;;;;3.73;3.00;;;;;;;-141.59;100.00;61776.25;5034703;28;20229;-83
2022/12/26 11:23:24;;;;;;;3.37;2.87;;;;;;;-141.59;100.00;61776.25;5007123;28;20203;-84
2022/12/26 11:25:53;;;;;;;3.87;3.00;;;;;;;-141.59;100.00;61776.25;4998573;28;20231;-84
2022/12/26 11:28:30;;;;;;;3.63;2.40;;;;;;;-141.59;100.00;61776.25;5004172;28;20262;-83
2022/12/26 11:31:00;;;;;;;4.80;2.60;;;;;;;-141.59;100.00;61776.25;5014629;28;20368;-84
2022/12/26 11:33:32;;;;;;;3.80;2.30;;;;;;;-141.59;100.00;61776.25;5006221;28;20199;-84
2022/12/26 11:36:10;;;;;;;5.27;3.27;;;;;;;-141.59;100.00;61776.25;5007266;28;20237;-84
2022/12/26 11:38:57;;;;;;;3.90;3.40;;;;;;;-141.59;100.00;61776.25;5002913;28;20206;-84
2022/12/26 11:41:42;;;;;;;3.17;2.87;;;;;;;-141.59;100.00;61776.25;5027711;28;20203;-84
2022/12/26 11:44:21;;;;;;;3.00;2.30;;;;;;;-141.59;100.00;61776.25;5023424;28;20205;-84
2022/12/26 11:46:53;;;;;;;4.43;2.60;;;;;;;-141.59;100.00;61776.25;5023374;28;20257;-84
2022/12/26 11:49:28;;;;;;;2.70;2.17;;;;;;;-141.59;100.00;61776.25;5016001;28;20207;-83
2022/12/26 11:51:55;;;;;;;2.17;1.93;;;;;;;-141.59;100.00;61776.25;5002310;28;20195;-84
2022/12/26 11:54:27;;;;;;;3.30;2.00;;;;;;;-141.59;100.00;61776.25;5007144;28;20302;-84
2022/12/26 11:57:16;;;;;;;2.47;1.90;;;;;;;-141.59;100.00;61776.25;5006269;28;20274;-84
2022/12/26 11:59:44;;;;;;;2.10;1.70;;;;;;;-141.59;100.00;61776.25;5025353;28;20221;-84
2022/12/26 12:02:30;;;;;;;1.60;1.50;;;;;;;-141.59;100.00;61776.25;5018016;28;20203;-84
2022/12/26 12:05:06;;;;;;;2.40;1.40;;;;;;;-141.59;100.00;61776.25;4998545;28;20218;-84
2022/12/26 12:08:16;;;;;;;2.07;1.80;;;;;;;-141.59;100.00;61776.25;5007525;28;20253;-84
2022/12/26 12:10:58;;;;;;;2.13;1.50;;;;;;;-141.59;100.00;61776.25;4993705;28;20223;-84
2022/12/26 12:13:52;;;;;;;2.20;2.00;;;;;;;-141.59;100.00;61776.25;5008567;28;20222;-84
2022/12/26 12:16:39;;;;;;;2.43;1.80;;;;;;;-141.59;100.00;61776.25;5016735;28;20306;-84
2022/12/26 12:19:20;;;;;;;2.83;1.70;;;;;;;-141.59;100.00;61776.25;5007113;28;20260;-84
2022/12/26 12:22:10;;;;;;;1.90;1.60;;;;;;;-141.59;100.00;61776.25;5002218;28;20288;-84
2022/12/26 12:24:56;;;;;;;3.60;2.00;;;;;;;-141.59;100.00;61776.25;5005953;28;20219;-84
2022/12/26 12:27:29;;;;;;;3.30;1.70;;;;;;;-141.59;100.00;61776.25;5014085;28;20292;-84
2022/12/26 12:30:09;;;;;;;2.77;2.30;;;;;;;-141.59;100.00;61776.25;5010216;28;20258;-84
2022/12/26 12:32:52;;;;;;;2.77;1.67;;;;;;;-141.59;100.00;61776.25;5046318;28;20202;-84
2022/12/26 12:35:31;;;;;;;2.73;1.70;;;;;;;-141.59;100.00;61776.25;5045138;28;20213;-84
2022/12/26 12:38:26;;;;;;;1.93;1.70;;;;;;;-141.59;100.00;61776.25;5013255;28;20266;-84
2022/12/26 12:41:06;;;;;;;1.77;1.67;;;;;;;-141.59;100.00;61776.25;4997786;28;20206;-84
2022/12/26 12:43:41;;;;;;;5.00;2.10;;;;;;;-141.59;100.00;61776.25;5046717;28;20211;-84
2022/12/26 12:46:18;;;;;;;2.50;2.00;;;;;;;-141.59;100.00;61776.25;5013810;28;20203;-84
2022/12/26 12:49:14;;;;;;;2.47;1.93;;;;;;;-141.59;100.00;61776.25;5008890;28;20310;-84
2022/12/26 12:51:49;;;;;;;3.07;2.00;;;;;;;-141.59;100.00;61776.25;5009403;28;20226;-84
2022/12/26 12:54:52;;;;;;;2.40;2.13;;;;;;;-141.59;100.00;61776.25;5026899;28;20237;-83
2022/12/26 12:57:27;;;;;;;1.80;1.70;;;;;;;-141.59;100.00;61776.25;4999335;28;20224;-84
2022/12/26 13:00:04;;;;;;;3.17;1.87;;;;;;;-141.59;100.00;61776.25;5011213;28;20206;-84
2022/12/26 13:02:38;;;;;;;2.93;2.00;;;;;;;-141.59;100.00;61776.25;5006142;28;20297;-84
2022/12/26 13:05:17;;;;;;;2.87;2.00;;;;;;;-141.59;100.00;61776.25;5012716;28;20265;-84
2022/12/26 13:07:50;;;;;;;3.10;2.10;;;;;;;-141.59;100.00;61776.25;5042555;28;20198;-83
2022/12/26 13:10:23;;;;;;;2.87;2.50;;;;;;;-141.59;100.00;61776.25;5004874;28;20230;-84
2022/12/26 13:12:52;;;;;;;2.50;2.03;;;;;;;-141.59;100.00;61776.25;5011291;28;20357;-84
2022/12/26 13:15:29;;;;;;;3.63;2.10;;;;;;;-141.59;100.00;61776.25;5009394;28;20209;-84
2022/12/26 13:18:03;;;;;;;3.40;2.10;;;;;;;-141.59;100.00;61776.25;5011062;28;20199;-84
2022/12/26 13:20:38;;;;;;;2.60;1.83;;;;;;;-141.59;100.00;61776.25;5009887;28;20270;-84
2022/12/26 13:26:09;;;;;;;3.00;2.30;;;;;;;-141.59;100.00;61776.25;5000401;28;20242;-84
2022/12/26 13:28:45;;;;;;;2.40;2.10;;;;;;;-141.59;100.00;61776.25;5029398;28;20248;-84
2022/12/26 13:31:13;;;;;;;2.80;2.50;;;;;;;-141.59;100.00;61776.25;5014372;28;20225;-84
2022/12/26 13:33:42;;;;;;;2.30;2.07;;;;;;;-141.59;100.00;61776.25;5009137;28;20199;-84
2022/12/26 13:36:10;;;;;;;3.20;2.23;;;;;;;-141.59;100.00;61776.25;5003582;28;20297;-81
2022/12/26 13:39:14;;;;;;;2.40;2.20;;;;;;;-141.59;100.00;61776.25;5011712;28;20207;-81
2022/12/26 13:44:33;;;;;;;2.63;2.27;;;;;;;-141.59;100.00;61776.25;5009200;28;20220;-84
2022/12/26 13:47:00;;;;;;;2.50;2.20;;;;;;;-141.59;100.00;61776.25;5007634;28;20279;-84
2022/12/26 13:49:35;;;;;;;6.53;2.87;;;;;;;-141.59;100.00;61776.25;5005193;28;20262;-84
2022/12/26 13:52:32;;;;;;;4.07;2.97;;;;;;;-141.59;100.00;61776.25;5009314;28;20290;-84